METARS
Date METAR Location Area
18/09/2014 LGY7 180030Z 02305KT 22/15 Q1014 Aegina Attica
18/09/2014 LGH5 180030Z 04500KT 21/15 Q1014 Ampelokipoi Attica
18/09/2014 LGS5 180030Z 00003KT 22/15 Q1009 Anavissos Attica
18/09/2014 LGO0 180030Z 24800KT 20/15 Q1014 Ano Liosia Attica
18/09/2014 LGB9 180030Z 00000KT 22/16 Q1016 Athens - Gazi Attica
18/09/2014 LGL5 180030Z 11303KT 18/15 Q1014 Ekali Attica
18/09/2014 LGS3 180030Z 00000KT 22/15 Q1014 Faliro Attica
18/09/2014 LGM3 180030Z 15803KT 23/17 Q1015 Hydra Attica
17/09/2014 LGI4 170300Z 00000G31104KT 234/188 Q10106 Hydra Attica
17/09/2014 LGO2 172230Z 00005KT 14/12 Q1014 Imittos Attica
18/09/2014 LGT8 180030Z 00000KT 15/13 Q1015 Ippokratios Attica
26/08/2014 LG99 260930Z 31503KT 32/19 Q1014 Kantza Attica
16/09/2014 LG13 162045Z 00000KT 18/16 Q1013 Kifissia Attica
18/09/2014 LGD6 180030Z 33805KT 23/17 Q1013 Lavrio Attica
18/09/2014 LGK0 180030Z 02301KT 20/15 Q1015 Marousi Attica
31/08/2014 LG00 310140Z 33002KT 20/12 Q1012 Marousi (Anavrita) Attica
15/09/2014 LGR0 152330Z 00001KT 25/19 Q1011 Nea Smirni Attica
17/09/2014 LGM8 172230Z 33805KT 22/15 Q1016 Neos Kosmos Attica
18/09/2014 LGA3 180106Z 00000KT 19/14 Q1014 Pallini - Kantza 2 Attica
18/09/2014 LGK3 180030Z 02313KT 11/11 Q1015 Parnitha 1230 EAA Attica
18/09/2014 LGT6 180030Z 00000KT 21/15 Q1015 Patissia Attica
18/09/2014 LG67 180100Z 0004320G11286KT 192/147 Q10147 Penteli Attica
18/09/2014 LGX9 180030Z 33803KT 18/14 Q1012 Penteli Attica
18/09/2014 LGU0 180030Z 04501KT 21/14 Q1015 Peristeri Attica
18/09/2014 LGY6 180030Z 00006KT 22/16 Q1014 Porto Rafti Attica
18/09/2014 LG96 180030Z 04501KT 20/15 Q1015 Psychico Attica
18/09/2014 LGZ0 180030Z 33809KT 22/16 Q1014 Rafina Attica
18/09/2014 LGG2 180030Z 33802KT 20/15 Q1014 Spata Attica
18/09/2014 LGS6 180030Z 29303KT 21/18 Q1014 Spetses Attica
18/09/2014 LGZ2 180030Z 06802KT 21/14 Q1015 Vari Attica
17/09/2014 LGR6 170730Z 29303KT 19/15 Q1013 Vilia Attica
15/09/2014 LG74 151900Z 00000KT 248/187 Q10108 Ymittos Attica
17/09/2014 LGG1 171600Z 0457830G18252KT 224/160 Q219 Kalivia Thorikou Attica E
18/09/2014 LG45 180030Z 02303KT 21/17 Q1017 Markopoulo Attica E
17/09/2014 LG72 170510Z 00000KT 191/161 Q10095 Keratea Attica SE
18/09/2014 LGW4 180030Z 00003KT 17/13 Q1010 Ag. Ioannis Sfakion Crete
18/09/2014 LGJ9 180030Z 33806KT 23/18 Q1012 Aghios Nikolaos Crete
18/09/2014 LGT4 180030Z 18001KT 19/17 Q1013 Alikianos Crete
18/09/2014 LGB6 180030Z 27003KT 17/14 Q1010 Anogeia Crete
17/09/2014 LGZ6 171030Z 00005KT 20/18 Q1014 Askyfou Crete
18/09/2014 LG25 180030Z 31502KT 21/18 Q1012 Chania Crete
18/09/2014 LGN3 180030Z 18003KT 20/18 Q1014 Chania Center Crete
18/09/2014 LG61 180030Z 33811KT 24/19 Q1012 Cost - Irakleio Crete
18/09/2014 LGL9 180030Z 09002KT 23/19 Q1011 Falasarna Crete
18/09/2014 LGL1 180030Z 31508KT 19/16 Q1011 Fourfouras Crete
30/08/2014 LGD4 300730Z 33807KT 26/15 Q1012 Fragmapotamon - Rethymno Crete
18/09/2014 LG30 180030Z 33804KT 24/18 Q1013 Heraklion - Knossos Crete
18/09/2014 LG95 180030Z 00005KT 23/18 Q1012 Ierapetra Crete
18/09/2014 LGP0 180030Z 04509KT 24/18 Q1011 Lentas Hrakleion Crete
17/09/2014 LGD7 171830Z 27005KT 21/17 Q1012 Metaxochori - Heraklion Crete
18/09/2014 LGI2 180030Z 06800KT 20/16 Q1012 Mires Crete
18/09/2014 LG36 180030Z 02309KT 24/17 Q1011 Paleochora Crete
18/09/2014 LG8A 180030Z 04504KT 20/18 Q1007 Pirathi Heraklion Crete
18/09/2014 LG58 180030Z 00003KT 24/19 Q1011 Rethymno Crete
18/09/2014 LGT2 180030Z 00008KT 24/18 Q1011 Rethymno - Plakia Crete
18/09/2014 LGY1 180030Z 29300KT 20/11 Q1013 Samaria Crete
18/09/2014 LGB4 180030Z 31501KT 13/10 Q1012 Samaria Crete
18/09/2014 LGM2 180030Z 31508KT 24/18 Q1011 Sitia Crete
18/09/2014 LG75 180030Z 31503KT 20/17 Q1014 Spili - Rethymnon Crete
18/09/2014 LG50 180030Z 00001KT 17/14 Q1011 Tzermiado Lasithi Crete
18/09/2014 LG70 180030Z 31501KT 18/16 Q1012 Vrysses Crete
18/09/2014 LGT5 180030Z 02306KT 23/18 Q1011 Amorgos Cyclades
18/09/2014 LGN6 180030Z 00007KT 22/16 Q1014 Andros Cyclades
18/09/2014 LGS7 180030Z 00012KT 23/18 Q1011 Donoussa Cyclades
18/09/2014 LGI0 180030Z 33810KT 23/18 Q1013 Ios Cyclades
17/09/2014 LGP2 170930Z 00009KT 21/16 Q1015 Ioulida - Kea Cyclades
18/09/2014 LGP5 180030Z 31504KT 23/18 Q1012 Iraklia Cyclades
18/09/2014 LGE3 180030Z 33806G18KT 22/16 Q1014 Kea Cyclades
18/09/2014 LGX8 180030Z 33812KT 23/18 Q1011 Koufonissia Cyclades
18/09/2014 LGS0 180030Z 02307KT 22/16 Q1014 Milos Cyclades
18/09/2014 LG66 180030Z 02322KT 23/18 Q1012 Mykonos Cyclades
18/09/2014 LGM0 180030Z 02313KT 23/18 Q1013 Naxos Cyclades
18/09/2014 LGV3 180030Z 02300KT 15/13 Q1013 Naxos - Apiranthos Cyclades
17/09/2014 LGT0 171030Z 31510KT 23/19 Q1012 Naxos - Apollonas Cyclades
18/09/2014 LGU1 180030Z 29301KT 20/16 Q1012 Naxos - Damarionas Cyclades
18/09/2014 LGU2 180030Z 00000KT 00/00 Q 0 Naxos - Koronos Cyclades
12/09/2014 LGN7 120730Z 27004KT 25/10 Q1013 Naxos - Kynidaros Cyclades
17/09/2014 LGW1 172030Z 31506KT 22/17 Q1012 Naxos - Melanes Cyclades
09/09/2014 LGO7 091330Z 00017KT 26/20 Q1012 Naxos - Mikri Vigla Cyclades
18/09/2014 LG02 180030Z 00013KT 23/18 Q1013 Paros Cyclades
18/09/2014 LGX5 180030Z 33805KT 21/16 Q1010 Santorini Cyclades
18/09/2014 LGX7 180030Z 33809KT 22/16 Q1011 Schinoussa Cyclades
07/07/2014 LG07 070630Z 00000KT 255/97 Q10099 Tinos Cyclades
17/09/2014 LGB8 170730Z 33807KT 25/19 Q1012 Tinos NOA Cyclades
18/09/2014 LGAB 180030Z 27006KT 20/17 Q1008 Emponas - Rhodes Dodecanese
18/09/2014 LGG6 180030Z 29305KT 23/16 Q1011 Kalymnos Dodecanese
18/09/2014 LGAC 180030Z 31509KT 24/19 Q1008 Kattavia - Rhodes Dodecanese
18/09/2014 LGAA 180030Z 31506KT 23/16 Q1010 Lindos - Rhodes Dodecanese
18/09/2014 LG65 180030Z 31509KT 23/17 Q1011 Patmos Dodecanese
18/09/2014 LGS9 180030Z 27003G16KT 23/17 Q1010 Rhodes Dodecanese
17/09/2014 LGM5 172330Z 29316KT 24/20 Q1010 Kasos Dodecanisa
18/09/2014 LGX1 180030Z 31503KT 23/17 Q1010 Kos Dodekanissa
18/09/2014 LG4A 180030Z 33805KT 21/15 Q1011 Chios East Aegean
18/09/2014 LGT1 180030Z 31511KT 23/18 Q1010 Fournoi East Aegean
18/09/2014 LGI9 180030Z 29301KT 18/16 Q1010 Ikaria East Aegean
18/09/2014 LGI5 180030Z 00005KT 20/15 Q1013 Lemnos East Aegean
18/09/2014 LGI6 180030Z 02306KT 20/16 Q1012 Lesvos East Aegean
18/09/2014 LGJ3 180030Z 31506KT 21/17 Q1014 Lesvos - Thermi East Aegean
16/09/2014 LGZ7 160530Z 04503KT 22/17 Q1010 Mantamados East Aegean
18/09/2014 LGY5 180030Z 02304KT 17/14 Q1014 Molyvos East Aegean
18/09/2014 LGF1 180030Z 33805KT 22/17 Q1010 Samos East Aegean
18/09/2014 LGW7 180030Z 00019KT 20/15 Q1009 Akrotirio Paksimada Evia
17/09/2014 LGO3 170030Z 31503KT 21/16 Q1009 Chalkida Evia
17/09/2014 LGR5 172230Z 33823KT 19/15 Q1014 Kavodoro Evia
09/09/2014 LGY0 090700Z 11300KT 09/05 Q1034 Krieza Evia
18/09/2014 LGX0 180030Z 00003KT 20/15 Q1016 Kymi Evia
25/08/2014 LGT7 251000Z 27004KT 09/07 Q1011 Setta Evia
18/09/2014 LG81 180030Z 00004KT 18/14 Q1014 Steni Evia
17/09/2014 LGC4 171930Z 04511KT 22/16 Q1015 Styra Evia
18/09/2014 LGD3 180030Z 02303KT 20/16 Q1015 Zarakes Evia
18/09/2014 LGP6 180030Z 00000KT 13/12 Q1016 Agia Kyriaki Ioanninon Hepirus
14/09/2014 LGO1 141430Z 20300KT 27/20 Q1011 Aridaia Hepirus
18/09/2014 LGD2 180030Z 00000KT 19/16 Q1014 Arta - Kompoti Hepirus
18/09/2014 LG38 180030Z 06803KT 20/16 Q1014 Arta - Vlacherna Hepirus
17/09/2014 LGE4 171030Z 33805KT 20/14 Q1013 Aspraggeloi Hepirus
18/09/2014 LGI3 180030Z 04501KT 14/13 Q1015 Derviziana Hepirus
18/09/2014 LGP4 180030Z 09000KT 13/12 Q1014 Dodoni Hepirus
02/09/2014 LGL8 021430Z 02304KT 24/07 Q1015 Grammos Hepirus
18/09/2014 LG43 180030Z 04503KT 18/14 Q1013 Igoumenitsa Hepirus
18/09/2014 LG49 180030Z 00000KT 13/13 Q1013 Ioannina Anatoli Hepirus
18/09/2014 LGK1 180030Z 00000KT 19/16 Q1014 Kanali, Preveza Hepirus
18/09/2014 LGE0 180030Z 00000KT 15/13 Q1015 Katarraktis - Arta Hepirus
18/09/2014 LGO5 180030Z 06803KT 12/11 Q1014 Kerasovo Konitsa Hepirus
18/09/2014 LG3A 180030Z 00000KT 15/14 Q1015 Konitsa Hepirus
18/09/2014 LGO8 180030Z 00000KT 12/10 Q1014 Metsovo Hepirus
18/09/2014 LGK6 180030Z 00000KT 13/12 Q1016 Papigo Hepirus
17/09/2014 LGF6 172030Z 06803KT 16/12 Q1014 Paramythia Hepirus
18/09/2014 LGK9 180030Z 06803KT 20/17 Q1015 Parga Hepirus
17/09/2014 LGK7 172030Z 00000KT 15/13 Q1014 Pesta Hepirus
17/09/2014 LGY9 172030Z 24801KT 11/10 Q 986 Plikati Ioanninon Hepirus
18/09/2014 LGP1 180030Z 00000KT 14/13 Q1015 Pramanta Hepirus
18/09/2014 LGK2 180030Z 15800KT 14/12 Q1020 Theodoriana, Arta Hepirus
24/08/2014 LGD0 241330Z 24802KT 29/14 Q1010 Tristeno - Ioannina Hepirus
18/09/2014 LGM4 180030Z 13500KT 12/12 Q1015 Tyria Hepirus
18/09/2014 LGR8 180030Z 00000KT 16/13 Q1014 Vourgareli Artas Hepirus
17/09/2014 LGN9 172230Z 00000KT 11/10 Q1016 Vovoussa Hepirus
18/09/2014 LGN0 180030Z 33800KT 16/13 Q1014 Zitsa Hepirus
18/09/2014 LGJ2 180030Z 00000KT 18/16 Q1015 Corfu - Gouvia Ionio
18/09/2014 LGB0 180030Z 29301KT 22/18 Q1014 Ithaki Ionio
18/09/2014 LGI7 180030Z 13503KT 19/17 Q1016 Lefkada Ionio
18/09/2014 LGN1 180030Z 00000KT 20/17 Q1013 Paxoi Ionio
18/09/2014 LGN4 180030Z 00000KT 14/12 Q1013 Zakynthos Ionio
18/09/2014 LGG9 180030Z 00000KT 14/13 Q1014 Amynteo Macedonia
18/09/2014 LG33 180030Z 09006KT 17/11 Q1015 Chalkidiki - Polygyros Macedonia
29/08/2014 LGJ1 291330Z 15800KT 27/19 Q1017 Chalkidiki - Stratoni Macedonia
17/09/2014 LGZ5 172330Z 33808KT 18/14 Q1015 Didymoteicho Macedonia
16/09/2014 LG55 160430Z 27000KT 17/16 Q1012 Dion Macedonia
18/09/2014 LGU8 180030Z 06800KT 16/14 Q1016 Doxato - Drama Macedonia
18/09/2014 LGH3 180050Z 28700KT 14/13 Q1016 Drama Macedonia
18/09/2014 LGH6 180030Z 00000KT 15/13 Q1015 Drama 2 Macedonia
18/09/2014 LGY3 180030Z 18003KT 15/13 Q1016 Eleutheroupoli Macedonia
27/08/2014 LGJ6 272050Z 15916G27KT 02/02 Q1009 Falakro Macedonia
22/08/2014 LG63 221230Z 00006KT -RA 23/20 Q1006 Florina Macedonia
17/09/2014 LGZ8 171530Z 11302KT 23/13 Q1015 Fotolivos Macedonia
17/09/2014 LG73 171230Z 31507KT 23/17 Q1013 Giannitsa Macedonia
18/09/2014 LGF2 180030Z 18001KT 15/14 Q1015 Grevena Macedonia
02/09/2014 LGO4 021130Z 06810KT +RA 18/17 Q1004 Hmathia - Rizomata Macedonia
18/09/2014 LG93 180030Z 13501KT 05/05 Q1018 Kaimaktsalan Macedonia
27/08/2014 LGN8 272050Z 19217G43KT 32/29 Q979 Kartakla - Falakro Macedonia
18/09/2014 LGO9 180030Z 29301KT 18/16 Q1015 Kassandreia (Xalkidiki) Macedonia
18/09/2014 LG27 180050Z 00400KT 19/12 Q1016 Kavala - Dexameni Macedonia
05/09/2014 LGA2 052147Z 00000KT 01/00 Q1022 Kavala - Eleftheroupoli Macedonia
18/09/2014 LG42 180030Z 06801KT 16/15 Q1015 Kilkis Macedonia
18/09/2014 LGW8 180030Z 00001KT 18/13 Q1017 Kimisi Macedonia
18/09/2014 LGJ4 180030Z 00000KT 15/14 Q1019 Kozani - Ardassa Macedonia
18/09/2014 LGP3 180030Z 00000KT 08/07 Q1017 Lailias - Serres Macedonia
18/09/2014 LGZ9 180030Z 00000KT 15/14 Q1016 Mavropigi Macedonia
18/09/2014 LG40 180030Z 00000KT -RA 16/15 Q1017 Naousa Macedonia
18/09/2014 LGZ4 180030Z 06803KT 21/14 Q1015 Neos Marmaras Macedonia
18/09/2014 LG48 180030Z 13500KT 12/10 Q 0 Nevrokopi Drama Macedonia
18/09/2014 LGS4 180030Z 00000KT -RA 14/13 Q1015 Notio Pedio - Eordea Macedonia
18/09/2014 LGW0 180030Z 00000KT 12/11 Q1017 Paranesti Macedonia
18/09/2014 LG26 180030Z 00000KT 15/14 Q1014 Ptolemaida Macedonia
18/09/2014 LG87 180030Z 00000KT -RA 09/09 Q1016 Seli Ski Center Macedonia
18/09/2014 LGW6 180030Z 00001KT 16/15 Q1017 Serres Macedonia
18/09/2014 LGD9 180030Z 20301KT 18/14 Q1016 Serres - Kerkini Macedonia
18/09/2014 LG14 180100Z 00000KT 150/112 Q10186 Serres - Proti Macedonia
07/09/2014 LGY8 071419Z 31505KT 9999 SCT036 10/00 Q1010 Thassos Macedonia
18/09/2014 LGR9 180030Z 24805KT 19/17 Q1016 Thessaloniki Macedonia
18/09/2014 LGF0 180030Z 00000KT 14/13 Q1016 Variko Macedonia
02/09/2014 LG82 020930Z 22510G21KT 11/09 Q1003 Vassilitsa Macedonia
18/09/2014 LGC2 180030Z 00004KT 20/14 Q1014 Vatopedi - Athos Macedonia
18/09/2014 LGE9 180030Z 00000KT 15/14 Q1017 Vegoritida Macedonia
18/09/2014 LGE5 180030Z 00000KT 18/17 Q1013 Veroia Macedonia
18/09/2014 LG98 180030Z 00000KT 12/10 Q1015 Vlasti - Kozani Macedonia
18/09/2014 LGF5 180101Z 02600KT 13/08 Q1016 Vounochori - Kavala Macedonia
18/09/2014 LGU5 180030Z 31503KT 19/16 Q1014 Agioi Theodoroi Peloponissos
18/09/2014 LGU7 180030Z 00000KT 16/10 Q1013 Alagonia - Messinia Peloponissos
18/09/2014 LG52 180030Z 09000KT 18/16 Q1013 Amaliada Peloponissos
18/09/2014 LG77 180030Z 18003KT 17/13 Q1012 Andritsaina Peloponissos
18/09/2014 LGU6 180030Z 00000KT 19/14 Q1014 Arfara - Messinia Peloponissos
18/09/2014 LGT3 180030Z 31500KT 20/19 Q1015 Argos Peloponissos
17/09/2014 LGA8 172100Z 00000KT 00/00 Q 0 Chalandritsa Peloponissos
18/09/2014 LGV0 180030Z 15803KT 22/15 Q1013 Derveni Peloponissos
28/08/2014 LGK4 280630Z 15801KT -RA 03/02 Q1021 Elati Peloponissos
18/09/2014 LGC3 180030Z 06800KT 15/13 Q1012 Foloi - Ilia Peloponissos
18/09/2014 LGX6 180030Z 31502KT 19/15 Q1015 Geraki Peloponissos
02/09/2014 LGB7 020830Z 22509KT 28/21 Q1004 Ilia - Vartholomio Peloponissos
02/09/2014 LG85 020430Z 11306KT 25/21 Q1006 Isthmos Peloponissos
17/09/2014 LG6A 172330Z 02302KT 23/13 Q1014 Kalamata Peloponissos
18/09/2014 LGV7 180030Z 00000KT 11/09 Q1015 Kalavryta Peloponissos
18/09/2014 LGZ3 180030Z 06803KT 22/17 Q1011 Kardamyli Peloponissos
18/09/2014 LGJ5 180030Z 00001KT 21/18 Q1013 Katakolo Peloponissos
18/09/2014 LGP7 180030Z 00000KT 13/11 Q1014 Kato Vlassia Peloponissos
27/08/2014 LGB2 272000Z 20301KT 27/23 Q1011 Katoachaia Peloponissos
18/09/2014 LGB5 180030Z 00010KT 21/17 Q1013 Kavomalias Peloponissos
17/09/2014 LGM7 170730Z 33801KT 27/17 Q1011 Kranidi Peloponissos
18/09/2014 LGV1 180030Z 13501KT 20/14 Q1014 Kyparissia Peloponissos
18/09/2014 LGW9 180030Z 00000KT 15/11 Q1013 Lagadia Peloponissos
18/09/2014 LG92 180030Z 00000KT 17/16 Q1012 Lappa-Larissos-Achaia Peloponissos
07/09/2014 LG91 070630Z 00000KT 21/15 Q1012 Lousika-Olenias-Achaia Peloponissos
18/09/2014 LGV4 180030Z 04502KT 18/14 Q1012 Lykochia Peloponissos
18/09/2014 LGG5 180030Z 04500KT 16/14 Q1014 Megalopoli Peloponissos
18/09/2014 LGV2 180030Z 00000KT 16/12 Q1012 Messinia - Kopanaki Peloponissos
17/09/2014 LGF8 171930Z 22502KT 23/18 Q1013 Molaoi Peloponissos
18/09/2014 LG56 180030Z 33808KT 23/16 Q1014 Monemvasia Peloponissos
18/09/2014 LGE1 180030Z 02300KT 18/15 Q1014 Nemea Peloponissos
18/09/2014 LGD5 180030Z 00000KT 15/12 Q1013 Oleni - Ilia Peloponissos
18/09/2014 LGB3 180030Z 00000KT 17/15 Q1013 Olympia Peloponissos
18/09/2014 LGV6 180030Z 11306KT 10/10 Q1014 Panachaiko Oros Peloponissos
18/09/2014 LGZ1 180030Z 15802KT 19/14 Q1013 Patra Peloponissos
18/09/2014 LG79 180100Z 00000KT 206/158 Q10143 Patra - Agia Peloponissos
17/09/2014 LG71 171930Z 1801728G4320KT 219/155 Q10134 Patra - Drosia Peloponissos
18/09/2014 LG84 180030Z 15801KT 22/18 Q1014 Patra - Port Peloponissos
18/09/2014 LG59 180030Z 13502KT 18/16 Q1013 Pirgos Peloponissos
18/09/2014 LGH8 180030Z 13500KT 20/15 Q1014 Rio Peloponissos
17/09/2014 LGT9 171330Z 24803KT 26/14 Q1011 Romanos - Patra Peloponissos
18/09/2014 LGA0 180030Z 00000KT 18/15 Q1012 Sagaiika Peloponissos
18/09/2014 LGF7 180030Z 00000KT 16/13 Q1015 Sparti Peloponissos
18/09/2014 LGS2 180030Z 09000KT 14/11 Q1014 Stemnitsa Peloponissos
12/09/2014 LGR1 121830Z 24805KT 18/13 Q1014 Trikala Korinthias Peloponissos
18/09/2014 LG83 180030Z 13500KT 17/15 Q1015 Tripoli Peloponissos
18/09/2014 LGU9 180030Z 00000KT 09/08 Q1015 Vytina Peloponissos
18/09/2014 LG86 180030Z 09001KT 15/14 Q1013 Zaxaro Peloponissos
18/09/2014 LGN2 180030Z 00000KT 27/18 Q1017 Alonissos Sporades
18/09/2014 LGI1 180030Z 33808KT 21/16 Q1014 Skyros Sporades
18/09/2014 LGH9 180030Z 02301KT 19/16 Q1017 Agrinio Sterea Ellada
18/09/2014 LGC7 180030Z 02301KT 20/17 Q1014 Aitoliko Sterea Ellada
18/09/2014 LG29 180030Z 20301KT 15/15 Q1015 Amfiklia Sterea Ellada
16/09/2014 LGH1 160500Z 00000KT 168/147 Q10121 Amfiklia 2 Sterea Ellada
18/09/2014 LGG8 180030Z 02306KT 19/15 Q1017 Antikira Sterea Ellada
18/09/2014 LG97 180110Z 00000KT 14/11 Q1015 Arachova Sterea Ellada
18/09/2014 LGC5 180030Z 00000KT 00/00 Q 0 Arahova Sterea Ellada
18/09/2014 LGH0 180030Z 27004KT 19/16 Q1013 Avlida Sterea Ellada
18/09/2014 LGR2 180030Z 00000KT -RA 14/13 Q1014 Dam of Mornos Sterea Ellada
18/09/2014 LGR3 180030Z 00000KT 14/13 Q1016 Diakopi of Lidoriki Sterea Ellada
18/09/2014 LGW5 180030Z 00000KT 16/15 Q1015 Domokos Sterea Ellada
14/09/2014 LG21 141323Z 24804KT 29/15 Q1014 Evia - Chalkida Sterea Ellada
18/09/2014 LGY4 180030Z 00002KT 22/14 Q1015 Galaxidi Sterea Ellada
18/09/2014 LGC8 180100Z 00000KT 174/154 Q10130 Gavalou - Aitol/nia Sterea Ellada
18/09/2014 LGJ7 180030Z 00000KT 17/16 Q1016 Kaparelli Sterea Ellada
18/09/2014 LGC9 180030Z 00000KT 12/11 Q1016 Karpenisi Sterea Ellada
18/09/2014 LGP9 180030Z 29303KT 19/15 Q1013 Kleidi Viotias Sterea Ellada
18/09/2014 LGR4 180030Z 27003KT 15/10 Q1015 Koniakos of Lidoriki Sterea Ellada
18/09/2014 LG5A 180030Z 29305KT 19/17 Q1015 Kopaida Sterea Ellada
16/09/2014 LGV9 162030Z 27008KT RA 20/17 Q1012 Lamia Sterea Ellada
17/09/2014 LGJ8 172230Z 11300KT 18/17 Q1014 Lefkochori Sterea Ellada
14/09/2014 LGI8 141330Z 04505KT 29/18 Q1011 Livadeia Sterea Ellada
18/09/2014 LGE7 180030Z 24800KT 17/16 Q1013 Makrakomi Sterea Ellada
18/09/2014 LGA6 180030Z 06802KT 11/10 Q1014 Mavrolithari - Vardousia Sterea Ellada
16/09/2014 LGK8 160330Z 13500KT 11/10 Q1010 Myriki Sterea Ellada
18/09/2014 LGG4 180030Z 09001KT 14/11 Q1014 Orini Nafpaktia Sterea Ellada
01/09/2014 LGA4 010700Z 09009KT -SN 02/M02 Q1009 Parnassos Sterea Ellada
27/08/2014 LGF9 271430Z 00000KT 03/02 Q1011 Parnassos1950 Sterea Ellada
17/09/2014 LGL0 171830Z 13500KT -RA 18/17 Q1016 Polydroso Sterea Ellada
07/09/2014 LGR7 071230Z 04508KT 11/09 Q1025 Prasino - Viotia Sterea Ellada
17/09/2014 LG69 172330Z 02301KT 19/15 Q1015 Tanagra Sterea Ellada
18/09/2014 LGO6 180030Z 00002KT 21/16 Q1015 Theologos Sterea Ellada
18/09/2014 LG94 180030Z 00000KT 157/137 Q10164 Hortiatis Thes/niki
18/09/2014 LG15 180113Z 05600KT 21/09 Q1015 Kamara Thes/niki Thes/niki
13/09/2014 LGA5 132130Z 24800KT 17/16 Q1011 Lagadas Thes/niki
24/08/2014 LG11 240730Z 12901KT 10/06 Q1006 West Thes/niki Thes/niki
17/09/2014 LGV5 172030Z 15801KT 18/14 Q1014 Tsamantas Thesprotia
18/09/2014 LGL4 180030Z 02300KT 13/12 Q1016 Gardiki Thessalia
18/09/2014 LGW3 180030Z 00000KT 18/17 Q1014 Kalabaka Thessalia
18/09/2014 LG2A 180030Z 31501KT 18/18 Q1016 Karditsa Thessalia
18/09/2014 LG41 180050Z 0001728G3456KT 205/165 Q10139 Larissa Thessalia
18/09/2014 LGL6 180030Z 00000KT 21/17 Q1015 Larissa Thessalia
18/09/2014 LGU3 172130Z 00000G864KT 207/165 Q10141 Larissa Thessalia
18/09/2014 LGS8 180030Z 02302KT 18/13 Q1015 Larissa - Agia Thessalia
28/08/2014 LGL7 282130Z 24812KT 16/05 Q1014 Limni Plastira Thessalia
26/08/2014 LGU4 260700Z 29304KT 04/M07 Q1013 Olympos Thessalia
18/09/2014 LG7A 180105Z 00000KT 194/138 Q10149 Pedio Areos Volou Thessalia
18/09/2014 LGE2 180030Z 33800KT -RA 12/11 Q1014 Pertouli Thessalia
18/09/2014 LGY2 180030Z 11301KT 17/11 Q1015 Portaria - Pelio Thessalia
18/09/2014 LG80 180030Z 04506KT 22/16 Q1017 Skopelos - Sporades Thessalia
18/09/2014 LG24 180030Z 00004KT 22/17 Q1015 Sporades - Skiathos Thessalia
18/09/2014 LG57 180030Z 31500KT 18/17 Q1015 Trikala Thessalia
18/09/2014 LG51 180030Z 00000KT 21/16 Q1015 Volos Thessalia
18/09/2014 LGG3 180030Z 24803KT 16/13 Q1018 Zagora EAA Thessalia
17/09/2014 LGD8 172030Z 02306KT 19/13 Q1016 Alexandroupolis Thraki
18/09/2014 LGM9 180030Z 04503KT 17/13 Q1014 Imeros Thraki
09/09/2014 LG35 091750Z 33604KT 23/15 Q1013 Komotini Thraki
18/09/2014 LGL2 180030Z 29302KT 17/14 Q1016 Metaxades - Evros Thraki
18/09/2014 LG31 180030Z 00004KT 18/13 Q1015 Orestiada Thraki
18/09/2014 LGC1 180030Z 02307KT 20/15 Q1015 Samothraki Thraki
03/09/2014 LGC6 030130Z 09003KT -RA 21/20 Q1005 Xanthi Thraki
www.meteorologia.gr